sensor_id;sensor_type;location;lat;lon;timestamp;temperature;humidity
68476;DHT22;55464;48.266;14.188;2023-03-01T00:01:31;2.00;62.50
68476;DHT22;55464;48.266;14.188;2023-03-01T00:03:56;2.10;62.50
68476;DHT22;55464;48.266;14.188;2023-03-01T00:06:22;2.00;62.80
68476;DHT22;55464;48.266;14.188;2023-03-01T00:08:48;2.10;62.80
68476;DHT22;55464;48.266;14.188;2023-03-01T00:13:43;2.00;62.90
68476;DHT22;55464;48.266;14.188;2023-03-01T00:16:10;2.10;62.70
68476;DHT22;55464;48.266;14.188;2023-03-01T00:18:35;1.90;63.20
68476;DHT22;55464;48.266;14.188;2023-03-01T00:21:01;1.90;63.30
68476;DHT22;55464;48.266;14.188;2023-03-01T00:23:27;1.90;63.30
68476;DHT22;55464;48.266;14.188;2023-03-01T00:25:53;1.80;63.50
68476;DHT22;55464;48.266;14.188;2023-03-01T00:28:19;1.80;63.50
68476;DHT22;55464;48.266;14.188;2023-03-01T00:30:45;1.70;63.30
68476;DHT22;55464;48.266;14.188;2023-03-01T00:33:10;1.90;63.00
68476;DHT22;55464;48.266;14.188;2023-03-01T00:35:36;1.90;62.50
68476;DHT22;55464;48.266;14.188;2023-03-01T00:38:01;1.90;62.40
68476;DHT22;55464;48.266;14.188;2023-03-01T00:40:27;1.90;62.40
68476;DHT22;55464;48.266;14.188;2023-03-01T00:42:53;1.90;62.50
68476;DHT22;55464;48.266;14.188;2023-03-01T00:45:19;1.90;62.60
68476;DHT22;55464;48.266;14.188;2023-03-01T00:47:44;2.00;62.50
68476;DHT22;55464;48.266;14.188;2023-03-01T00:50:10;1.90;62.50
68476;DHT22;55464;48.266;14.188;2023-03-01T00:52:36;1.90;62.60
68476;DHT22;55464;48.266;14.188;2023-03-01T00:55:02;2.00;62.40
68476;DHT22;55464;48.266;14.188;2023-03-01T00:57:27;1.90;62.30
68476;DHT22;55464;48.266;14.188;2023-03-01T00:59:53;1.90;62.40
68476;DHT22;55464;48.266;14.188;2023-03-01T01:02:19;1.90;62.50
68476;DHT22;55464;48.266;14.188;2023-03-01T01:04:44;1.90;62.50
68476;DHT22;55464;48.266;14.188;2023-03-01T01:07:10;1.80;62.60
68476;DHT22;55464;48.266;14.188;2023-03-01T01:09:35;1.80;62.80
68476;DHT22;55464;48.266;14.188;2023-03-01T01:12:02;1.80;62.90
68476;DHT22;55464;48.266;14.188;2023-03-01T01:14:27;1.80;62.70
68476;DHT22;55464;48.266;14.188;2023-03-01T01:16:53;1.70;62.90
68476;DHT22;55464;48.266;14.188;2023-03-01T01:19:18;1.70;62.60
68476;DHT22;55464;48.266;14.188;2023-03-01T01:21:44;1.80;62.70
68476;DHT22;55464;48.266;14.188;2023-03-01T01:24:10;1.80;62.70
68476;DHT22;55464;48.266;14.188;2023-03-01T01:26:36;1.70;62.60
68476;DHT22;55464;48.266;14.188;2023-03-01T01:29:02;1.70;62.50
68476;DHT22;55464;48.266;14.188;2023-03-01T01:31:28;1.70;62.70
68476;DHT22;55464;48.266;14.188;2023-03-01T01:33:54;1.70;62.90
68476;DHT22;55464;48.266;14.188;2023-03-01T01:36:20;1.70;63.10
68476;DHT22;55464;48.266;14.188;2023-03-01T01:38:46;1.60;63.30
68476;DHT22;55464;48.266;14.188;2023-03-01T01:41:11;1.60;64.00
68476;DHT22;55464;48.266;14.188;2023-03-01T01:43:39;1.50;63.90
68476;DHT22;55464;48.266;14.188;2023-03-01T01:46:10;1.50;64.30
68476;DHT22;55464;48.266;14.188;2023-03-01T01:48:39;1.50;63.80
68476;DHT22;55464;48.266;14.188;2023-03-01T01:51:06;1.50;63.60
68476;DHT22;55464;48.266;14.188;2023-03-01T01:53:32;1.50;63.70
68476;DHT22;55464;48.266;14.188;2023-03-01T01:55:58;1.50;63.60
68476;DHT22;55464;48.266;14.188;2023-03-01T01:58:25;1.40;63.60
68476;DHT22;55464;48.266;14.188;2023-03-01T02:00:53;1.40;63.60
68476;DHT22;55464;48.266;14.188;2023-03-01T02:03:20;1.50;63.50
68476;DHT22;55464;48.266;14.188;2023-03-01T02:08:16;1.50;62.90
68476;DHT22;55464;48.266;14.188;2023-03-01T02:10:43;1.50;62.90
68476;DHT22;55464;48.266;14.188;2023-03-01T02:13:10;1.50;62.90
68476;DHT22;55464;48.266;14.188;2023-03-01T02:15:37;1.40;63.00
68476;DHT22;55464;48.266;14.188;2023-03-01T02:18:03;1.40;62.80
68476;DHT22;55464;48.266;14.188;2023-03-01T02:22:57;1.50;62.40
68476;DHT22;55464;48.266;14.188;2023-03-01T02:25:36;1.50;62.40
68476;DHT22;55464;48.266;14.188;2023-03-01T02:30:31;1.40;62.80
68476;DHT22;55464;48.266;14.188;2023-03-01T02:32:57;1.40;62.60
68476;DHT22;55464;48.266;14.188;2023-03-01T02:35:29;1.40;62.40
68476;DHT22;55464;48.266;14.188;2023-03-01T02:37:56;1.40;62.70
68476;DHT22;55464;48.266;14.188;2023-03-01T02:40:22;1.40;62.60
68476;DHT22;55464;48.266;14.188;2023-03-01T02:42:54;1.40;62.70
68476;DHT22;55464;48.266;14.188;2023-03-01T02:45:21;1.30;63.00
68476;DHT22;55464;48.266;14.188;2023-03-01T02:47:47;1.30;63.20
68476;DHT22;55464;48.266;14.188;2023-03-01T02:50:19;1.40;62.80
68476;DHT22;55464;48.266;14.188;2023-03-01T02:52:53;1.30;63.00
68476;DHT22;55464;48.266;14.188;2023-03-01T02:55:21;1.30;63.10
68476;DHT22;55464;48.266;14.188;2023-03-01T02:57:46;1.30;63.20
68476;DHT22;55464;48.266;14.188;2023-03-01T03:00:20;1.30;62.70
68476;DHT22;55464;48.266;14.188;2023-03-01T03:02:50;1.30;62.80
68476;DHT22;55464;48.266;14.188;2023-03-01T03:05:18;1.40;62.80
68476;DHT22;55464;48.266;14.188;2023-03-01T03:07:45;1.30;62.80
68476;DHT22;55464;48.266;14.188;2023-03-01T03:10:13;1.20;62.90
68476;DHT22;55464;48.266;14.188;2023-03-01T03:12:39;1.30;62.80
68476;DHT22;55464;48.266;14.188;2023-03-01T03:15:05;1.30;63.00
68476;DHT22;55464;48.266;14.188;2023-03-01T03:17:37;1.30;62.90
68476;DHT22;55464;48.266;14.188;2023-03-01T03:20:03;1.30;62.80
68476;DHT22;55464;48.266;14.188;2023-03-01T03:22:29;1.30;62.80
68476;DHT22;55464;48.266;14.188;2023-03-01T03:24:55;1.30;62.70
68476;DHT22;55464;48.266;14.188;2023-03-01T03:27:20;1.30;62.30
68476;DHT22;55464;48.266;14.188;2023-03-01T03:29:46;1.30;62.00
68476;DHT22;55464;48.266;14.188;2023-03-01T03:32:11;1.30;62.40
68476;DHT22;55464;48.266;14.188;2023-03-01T03:34:37;1.30;62.40
68476;DHT22;55464;48.266;14.188;2023-03-01T03:37:02;1.30;62.30
68476;DHT22;55464;48.266;14.188;2023-03-01T03:39:28;1.30;62.70
68476;DHT22;55464;48.266;14.188;2023-03-01T03:41:54;1.30;62.70
68476;DHT22;55464;48.266;14.188;2023-03-01T03:44:20;1.30;63.30
68476;DHT22;55464;48.266;14.188;2023-03-01T03:46:46;1.20;63.20
68476;DHT22;55464;48.266;14.188;2023-03-01T03:49:11;1.20;63.00
68476;DHT22;55464;48.266;14.188;2023-03-01T03:51:37;1.20;63.20
68476;DHT22;55464;48.266;14.188;2023-03-01T03:54:02;1.30;62.90
68476;DHT22;55464;48.266;14.188;2023-03-01T03:56:28;1.20;63.10
68476;DHT22;55464;48.266;14.188;2023-03-01T03:58:54;1.20;63.00
68476;DHT22;55464;48.266;14.188;2023-03-01T04:01:19;1.20;63.00
68476;DHT22;55464;48.266;14.188;2023-03-01T04:03:45;1.20;62.90
68476;DHT22;55464;48.266;14.188;2023-03-01T04:06:13;1.20;62.50
68476;DHT22;55464;48.266;14.188;2023-03-01T04:08:38;1.20;62.50
68476;DHT22;55464;48.266;14.188;2023-03-01T04:11:05;1.20;62.50
68476;DHT22;55464;48.266;14.188;2023-03-01T04:13:49;1.20;63.20
68476;DHT22;55464;48.266;14.188;2023-03-01T04:16:15;1.00;64.30
68476;DHT22;55464;48.266;14.188;2023-03-01T04:18:41;0.80;64.90
68476;DHT22;55464;48.266;14.188;2023-03-01T04:21:06;0.80;64.90
68476;DHT22;55464;48.266;14.188;2023-03-01T04:23:32;0.90;64.70
68476;DHT22;55464;48.266;14.188;2023-03-01T04:25:58;0.90;64.40
68476;DHT22;55464;48.266;14.188;2023-03-01T04:28:25;1.00;64.20
68476;DHT22;55464;48.266;14.188;2023-03-01T04:30:52;0.90;63.80
68476;DHT22;55464;48.266;14.188;2023-03-01T04:33:18;1.00;63.40
68476;DHT22;55464;48.266;14.188;2023-03-01T04:35:43;1.10;63.20
68476;DHT22;55464;48.266;14.188;2023-03-01T04:38:09;1.10;63.00
68476;DHT22;55464;48.266;14.188;2023-03-01T04:40:35;1.10;63.20
68476;DHT22;55464;48.266;14.188;2023-03-01T04:43:00;1.10;63.50
68476;DHT22;55464;48.266;14.188;2023-03-01T04:45:26;1.10;63.70
68476;DHT22;55464;48.266;14.188;2023-03-01T04:47:53;1.00;63.80
68476;DHT22;55464;48.266;14.188;2023-03-01T04:50:19;1.00;63.70
68476;DHT22;55464;48.266;14.188;2023-03-01T04:52:49;1.00;63.50
68476;DHT22;55464;48.266;14.188;2023-03-01T04:55:14;1.10;63.10
68476;DHT22;55464;48.266;14.188;2023-03-01T04:57:40;1.10;63.10
68476;DHT22;55464;48.266;14.188;2023-03-01T05:00:06;1.10;63.10
68476;DHT22;55464;48.266;14.188;2023-03-01T05:02:57;1.00;63.00
68476;DHT22;55464;48.266;14.188;2023-03-01T05:05:27;1.10;62.90
68476;DHT22;55464;48.266;14.188;2023-03-01T05:07:54;1.10;62.60
68476;DHT22;55464;48.266;14.188;2023-03-01T05:10:20;1.10;62.70
68476;DHT22;55464;48.266;14.188;2023-03-01T05:12:46;1.10;62.90
68476;DHT22;55464;48.266;14.188;2023-03-01T05:15:11;1.10;62.90
68476;DHT22;55464;48.266;14.188;2023-03-01T05:17:37;1.10;63.00
68476;DHT22;55464;48.266;14.188;2023-03-01T05:20:03;1.10;62.80
68476;DHT22;55464;48.266;14.188;2023-03-01T05:22:33;1.10;62.70
68476;DHT22;55464;48.266;14.188;2023-03-01T05:24:58;1.00;63.40
68476;DHT22;55464;48.266;14.188;2023-03-01T05:27:24;0.40;67.00
68476;DHT22;55464;48.266;14.188;2023-03-01T05:29:50;0.00;69.50
68476;DHT22;55464;48.266;14.188;2023-03-01T05:32:15;-3276.60;70.10
68476;DHT22;55464;48.266;14.188;2023-03-01T05:34:41;-3276.60;70.50
68476;DHT22;55464;48.266;14.188;2023-03-01T05:37:07;-3276.40;71.30
68476;DHT22;55464;48.266;14.188;2023-03-01T05:39:33;-3276.50;71.20
68476;DHT22;55464;48.266;14.188;2023-03-01T05:42:00;-3276.50;70.90
68476;DHT22;55464;48.266;14.188;2023-03-01T05:44:29;-3276.60;70.50
68476;DHT22;55464;48.266;14.188;2023-03-01T05:46:55;-3276.70;70.00
68476;DHT22;55464;48.266;14.188;2023-03-01T05:49:22;-3276.60;70.30
68476;DHT22;55464;48.266;14.188;2023-03-01T05:51:51;-3276.70;70.20
68476;DHT22;55464;48.266;14.188;2023-03-01T05:54:17;0.00;69.90
68476;DHT22;55464;48.266;14.188;2023-03-01T05:56:43;0.00;69.80
68476;DHT22;55464;48.266;14.188;2023-03-01T05:59:09;0.00;69.70
68476;DHT22;55464;48.266;14.188;2023-03-01T06:01:35;0.00;69.70
68476;DHT22;55464;48.266;14.188;2023-03-01T06:04:01;0.00;70.00
68476;DHT22;55464;48.266;14.188;2023-03-01T06:06:27;0.00;70.00
68476;DHT22;55464;48.266;14.188;2023-03-01T06:08:52;0.10;69.80
68476;DHT22;55464;48.266;14.188;2023-03-01T06:11:19;0.10;69.70
68476;DHT22;55464;48.266;14.188;2023-03-01T06:13:45;0.10;70.10
68476;DHT22;55464;48.266;14.188;2023-03-01T06:16:10;0.20;69.50
68476;DHT22;55464;48.266;14.188;2023-03-01T06:18:36;0.20;69.70
68476;DHT22;55464;48.266;14.188;2023-03-01T06:21:02;0.30;69.60
68476;DHT22;55464;48.266;14.188;2023-03-01T06:23:28;0.20;69.70
68476;DHT22;55464;48.266;14.188;2023-03-01T06:25:53;0.30;69.50
68476;DHT22;55464;48.266;14.188;2023-03-01T06:28:19;0.30;69.50
68476;DHT22;55464;48.266;14.188;2023-03-01T06:30:44;0.40;69.40
68476;DHT22;55464;48.266;14.188;2023-03-01T06:33:10;0.50;68.90
68476;DHT22;55464;48.266;14.188;2023-03-01T06:35:35;0.40;69.10
68476;DHT22;55464;48.266;14.188;2023-03-01T06:38:02;0.40;69.20
68476;DHT22;55464;48.266;14.188;2023-03-01T06:40:28;0.50;68.80
68476;DHT22;55464;48.266;14.188;2023-03-01T06:42:53;0.50;69.20
68476;DHT22;55464;48.266;14.188;2023-03-01T06:45:19;0.60;68.70
68476;DHT22;55464;48.266;14.188;2023-03-01T06:47:45;0.70;68.50
68476;DHT22;55464;48.266;14.188;2023-03-01T06:50:11;0.70;68.70
68476;DHT22;55464;48.266;14.188;2023-03-01T06:52:37;0.80;68.40
68476;DHT22;55464;48.266;14.188;2023-03-01T06:55:02;0.80;68.10
68476;DHT22;55464;48.266;14.188;2023-03-01T06:57:28;0.80;67.70
68476;DHT22;55464;48.266;14.188;2023-03-01T06:59:54;0.90;68.00
68476;DHT22;55464;48.266;14.188;2023-03-01T07:02:19;0.90;68.10
68476;DHT22;55464;48.266;14.188;2023-03-01T07:04:45;1.00;68.20
68476;DHT22;55464;48.266;14.188;2023-03-01T07:07:10;1.00;68.70
68476;DHT22;55464;48.266;14.188;2023-03-01T07:09:36;1.00;68.40
68476;DHT22;55464;48.266;14.188;2023-03-01T07:12:02;1.10;68.30
68476;DHT22;55464;48.266;14.188;2023-03-01T07:14:27;1.10;68.20
68476;DHT22;55464;48.266;14.188;2023-03-01T07:16:53;1.20;67.80
68476;DHT22;55464;48.266;14.188;2023-03-01T07:19:19;1.30;67.80
68476;DHT22;55464;48.266;14.188;2023-03-01T07:21:45;1.30;67.90
68476;DHT22;55464;48.266;14.188;2023-03-01T07:24:10;1.30;67.70
68476;DHT22;55464;48.266;14.188;2023-03-01T07:26:36;1.30;67.90
68476;DHT22;55464;48.266;14.188;2023-03-01T07:29:03;1.40;68.00
68476;DHT22;55464;48.266;14.188;2023-03-01T07:31:28;1.40;67.30
68476;DHT22;55464;48.266;14.188;2023-03-01T07:33:54;1.40;67.60
68476;DHT22;55464;48.266;14.188;2023-03-01T07:36:20;1.40;67.90
68476;DHT22;55464;48.266;14.188;2023-03-01T07:38:45;1.50;67.50
68476;DHT22;55464;48.266;14.188;2023-03-01T07:41:11;1.50;67.50
68476;DHT22;55464;48.266;14.188;2023-03-01T07:43:36;1.60;67.20
68476;DHT22;55464;48.266;14.188;2023-03-01T07:46:02;1.60;67.00
68476;DHT22;55464;48.266;14.188;2023-03-01T07:48:28;1.60;67.00
68476;DHT22;55464;48.266;14.188;2023-03-01T07:50:56;1.70;66.90
68476;DHT22;55464;48.266;14.188;2023-03-01T07:53:22;1.80;67.00
68476;DHT22;55464;48.266;14.188;2023-03-01T07:55:48;1.80;66.70
68476;DHT22;55464;48.266;14.188;2023-03-01T07:58:14;1.80;66.80
68476;DHT22;55464;48.266;14.188;2023-03-01T08:00:39;1.80;66.50
68476;DHT22;55464;48.266;14.188;2023-03-01T08:03:05;1.90;66.90
68476;DHT22;55464;48.266;14.188;2023-03-01T08:05:30;1.90;66.60
68476;DHT22;55464;48.266;14.188;2023-03-01T08:07:56;1.80;67.00
68476;DHT22;55464;48.266;14.188;2023-03-01T08:10:21;1.90;67.00
68476;DHT22;55464;48.266;14.188;2023-03-01T08:12:47;1.90;66.90
68476;DHT22;55464;48.266;14.188;2023-03-01T08:15:12;2.00;66.60
68476;DHT22;55464;48.266;14.188;2023-03-01T08:17:38;2.10;66.20
68476;DHT22;55464;48.266;14.188;2023-03-01T08:20:03;2.10;66.40
68476;DHT22;55464;48.266;14.188;2023-03-01T08:22:31;2.20;65.80
68476;DHT22;55464;48.266;14.188;2023-03-01T08:24:57;2.30;66.10
68476;DHT22;55464;48.266;14.188;2023-03-01T08:27:22;2.40;66.40
68476;DHT22;55464;48.266;14.188;2023-03-01T08:29:48;2.40;65.70
68476;DHT22;55464;48.266;14.188;2023-03-01T08:32:13;2.50;65.30
68476;DHT22;55464;48.266;14.188;2023-03-01T08:34:39;2.50;65.50
68476;DHT22;55464;48.266;14.188;2023-03-01T08:37:04;2.60;65.50
68476;DHT22;55464;48.266;14.188;2023-03-01T08:39:30;2.60;65.30
68476;DHT22;55464;48.266;14.188;2023-03-01T08:41:55;2.70;65.00
68476;DHT22;55464;48.266;14.188;2023-03-01T08:44:21;2.80;63.90
68476;DHT22;55464;48.266;14.188;2023-03-01T08:46:47;2.90;64.60
68476;DHT22;55464;48.266;14.188;2023-03-01T08:49:16;2.90;64.30
68476;DHT22;55464;48.266;14.188;2023-03-01T08:51:42;3.00;62.80
68476;DHT22;55464;48.266;14.188;2023-03-01T08:54:18;3.10;63.30
68476;DHT22;55464;48.266;14.188;2023-03-01T08:56:44;3.10;62.50
68476;DHT22;55464;48.266;14.188;2023-03-01T08:59:10;3.10;62.60
68476;DHT22;55464;48.266;14.188;2023-03-01T09:01:36;3.20;62.70
68476;DHT22;55464;48.266;14.188;2023-03-01T09:04:02;3.30;62.70
68476;DHT22;55464;48.266;14.188;2023-03-01T09:06:32;3.40;63.10
68476;DHT22;55464;48.266;14.188;2023-03-01T09:08:58;3.50;62.80
68476;DHT22;55464;48.266;14.188;2023-03-01T09:11:24;3.50;63.70
68476;DHT22;55464;48.266;14.188;2023-03-01T09:13:49;3.60;62.00
68476;DHT22;55464;48.266;14.188;2023-03-01T09:16:16;3.70;61.80
68476;DHT22;55464;48.266;14.188;2023-03-01T09:18:42;3.80;61.00
68476;DHT22;55464;48.266;14.188;2023-03-01T09:21:11;3.80;61.70
68476;DHT22;55464;48.266;14.188;2023-03-01T09:23:41;3.90;61.00
68476;DHT22;55464;48.266;14.188;2023-03-01T09:26:08;4.00;61.50
68476;DHT22;55464;48.266;14.188;2023-03-01T09:28:34;4.00;61.40
68476;DHT22;55464;48.266;14.188;2023-03-01T09:31:01;4.10;62.00
68476;DHT22;55464;48.266;14.188;2023-03-01T09:33:27;4.10;61.40
68476;DHT22;55464;48.266;14.188;2023-03-01T09:36:00;4.30;62.30
68476;DHT22;55464;48.266;14.188;2023-03-01T09:38:26;4.30;61.30
68476;DHT22;55464;48.266;14.188;2023-03-01T09:40:51;4.30;62.00
68476;DHT22;55464;48.266;14.188;2023-03-01T09:45:45;4.40;62.20
68476;DHT22;55464;48.266;14.188;2023-03-01T09:48:14;4.50;62.60
68476;DHT22;55464;48.266;14.188;2023-03-01T09:50:41;4.60;62.10
68476;DHT22;55464;48.266;14.188;2023-03-01T09:53:25;4.60;62.20
68476;DHT22;55464;48.266;14.188;2023-03-01T09:55:59;4.70;63.00
68476;DHT22;55464;48.266;14.188;2023-03-01T10:00:59;4.90;62.30
68476;DHT22;55464;48.266;14.188;2023-03-01T10:03:26;5.00;62.30
68476;DHT22;55464;48.266;14.188;2023-03-01T10:05:57;5.10;61.90
68476;DHT22;55464;48.266;14.188;2023-03-01T10:08:35;5.20;62.20
68476;DHT22;55464;48.266;14.188;2023-03-01T10:11:03;5.20;61.80
68476;DHT22;55464;48.266;14.188;2023-03-01T10:13:34;5.30;61.90
68476;DHT22;55464;48.266;14.188;2023-03-01T10:16:12;5.30;61.50
68476;DHT22;55464;48.266;14.188;2023-03-01T10:18:39;5.40;61.30
68476;DHT22;55464;48.266;14.188;2023-03-01T10:21:09;5.50;60.90
68476;DHT22;55464;48.266;14.188;2023-03-01T10:23:37;5.50;61.60
68476;DHT22;55464;48.266;14.188;2023-03-01T10:28:31;5.70;62.40
68476;DHT22;55464;48.266;14.188;2023-03-01T10:31:01;5.70;62.00
68476;DHT22;55464;48.266;14.188;2023-03-01T10:33:27;5.70;62.80
68476;DHT22;55464;48.266;14.188;2023-03-01T10:35:54;5.90;61.80
68476;DHT22;55464;48.266;14.188;2023-03-01T10:38:20;6.00;61.60
68476;DHT22;55464;48.266;14.188;2023-03-01T10:41:05;6.00;60.70
68476;DHT22;55464;48.266;14.188;2023-03-01T10:46:28;6.10;61.40
68476;DHT22;55464;48.266;14.188;2023-03-01T10:49:14;6.10;61.00
68476;DHT22;55464;48.266;14.188;2023-03-01T10:51:40;6.30;60.10
68476;DHT22;55464;48.266;14.188;2023-03-01T10:54:15;6.30;59.70
68476;DHT22;55464;48.266;14.188;2023-03-01T10:56:48;6.40;60.50
68476;DHT22;55464;48.266;14.188;2023-03-01T10:59:47;6.50;60.30
68476;DHT22;55464;48.266;14.188;2023-03-01T11:02:21;6.60;59.60
68476;DHT22;55464;48.266;14.188;2023-03-01T11:07:23;6.80;59.20
68476;DHT22;55464;48.266;14.188;2023-03-01T11:09:48;7.00;58.60
68476;DHT22;55464;48.266;14.188;2023-03-01T11:12:14;7.10;58.10
68476;DHT22;55464;48.266;14.188;2023-03-01T11:14:50;7.30;57.90
68476;DHT22;55464;48.266;14.188;2023-03-01T11:17:29;7.40;58.40
68476;DHT22;55464;48.266;14.188;2023-03-01T11:20:05;7.50;57.20
68476;DHT22;55464;48.266;14.188;2023-03-01T11:22:31;7.50;57.30
68476;DHT22;55464;48.266;14.188;2023-03-01T11:24:58;7.60;56.70
68476;DHT22;55464;48.266;14.188;2023-03-01T11:27:34;7.80;56.60
68476;DHT22;55464;48.266;14.188;2023-03-01T11:30:09;8.00;55.40
68476;DHT22;55464;48.266;14.188;2023-03-01T11:33:01;8.00;56.60
68476;DHT22;55464;48.266;14.188;2023-03-01T11:35:28;8.10;54.90
68476;DHT22;55464;48.266;14.188;2023-03-01T11:40:43;8.30;56.40
68476;DHT22;55464;48.266;14.188;2023-03-01T11:46:02;8.50;54.60
68476;DHT22;55464;48.266;14.188;2023-03-01T11:48:42;8.70;54.10
68476;DHT22;55464;48.266;14.188;2023-03-01T11:51:14;8.70;54.40
68476;DHT22;55464;48.266;14.188;2023-03-01T12:06:50;9.50;53.80
68476;DHT22;55464;48.266;14.188;2023-03-01T12:09:21;9.60;51.70
68476;DHT22;55464;48.266;14.188;2023-03-01T12:12:03;9.70;51.70
68476;DHT22;55464;48.266;14.188;2023-03-01T12:14:37;9.70;51.10
68476;DHT22;55464;48.266;14.188;2023-03-01T12:24:42;10.50;49.80
68476;DHT22;55464;48.266;14.188;2023-03-01T12:27:28;10.50;49.40
68476;DHT22;55464;48.266;14.188;2023-03-01T12:42:37;11.00;48.40
68476;DHT22;55464;48.266;14.188;2023-03-01T12:50:42;11.50;47.60
68476;DHT22;55464;48.266;14.188;2023-03-01T12:53:43;11.60;47.20
68476;DHT22;55464;48.266;14.188;2023-03-01T12:56:10;11.70;46.50
68476;DHT22;55464;48.266;14.188;2023-03-01T13:04:12;12.00;46.00
68476;DHT22;55464;48.266;14.188;2023-03-01T13:11:40;12.20;45.50
68476;DHT22;55464;48.266;14.188;2023-03-01T13:16:48;12.50;44.70
68476;DHT22;55464;48.266;14.188;2023-03-01T13:19:19;12.80;44.40
68476;DHT22;55464;48.266;14.188;2023-03-01T13:21:45;13.70;41.70
68476;DHT22;55464;48.266;14.188;2023-03-01T13:24:23;14.60;39.20
68476;DHT22;55464;48.266;14.188;2023-03-01T13:32:07;15.10;39.20
68476;DHT22;55464;48.266;14.188;2023-03-01T13:34:44;14.80;39.30
68476;DHT22;55464;48.266;14.188;2023-03-01T13:37:13;14.50;38.80
68476;DHT22;55464;48.266;14.188;2023-03-01T13:39:43;14.40;39.70
68476;DHT22;55464;48.266;14.188;2023-03-01T13:42:28;14.90;38.30
68476;DHT22;55464;48.266;14.188;2023-03-01T13:44:54;15.40;37.50
68476;DHT22;55464;48.266;14.188;2023-03-01T13:47:20;15.80;36.70
68476;DHT22;55464;48.266;14.188;2023-03-01T13:52:36;15.80;36.60
68476;DHT22;55464;48.266;14.188;2023-03-01T13:55:03;15.70;37.00
68476;DHT22;55464;48.266;14.188;2023-03-01T13:57:36;16.10;36.50
68476;DHT22;55464;48.266;14.188;2023-03-01T14:00:04;15.70;36.20
68476;DHT22;55464;48.266;14.188;2023-03-01T14:02:30;16.00;35.70
68476;DHT22;55464;48.266;14.188;2023-03-01T14:04:57;16.40;35.30
68476;DHT22;55464;48.266;14.188;2023-03-01T14:07:24;16.40;35.90
68476;DHT22;55464;48.266;14.188;2023-03-01T14:09:54;16.20;35.40
68476;DHT22;55464;48.266;14.188;2023-03-01T14:12:23;15.90;36.30
68476;DHT22;55464;48.266;14.188;2023-03-01T14:15:06;16.40;36.10
68476;DHT22;55464;48.266;14.188;2023-03-01T14:17:38;16.10;36.70
68476;DHT22;55464;48.266;14.188;2023-03-01T14:20:11;16.20;36.50
68476;DHT22;55464;48.266;14.188;2023-03-01T14:22:37;16.50;36.20
68476;DHT22;55464;48.266;14.188;2023-03-01T14:25:16;16.50;34.70
68476;DHT22;55464;48.266;14.188;2023-03-01T14:27:42;16.80;34.20
68476;DHT22;55464;48.266;14.188;2023-03-01T14:30:12;16.60;34.50
68476;DHT22;55464;48.266;14.188;2023-03-01T14:32:40;17.40;33.00
68476;DHT22;55464;48.266;14.188;2023-03-01T14:35:22;17.30;33.80
68476;DHT22;55464;48.266;14.188;2023-03-01T14:37:48;18.40;31.90
68476;DHT22;55464;48.266;14.188;2023-03-01T14:40:26;18.50;31.20
68476;DHT22;55464;48.266;14.188;2023-03-01T14:42:52;18.20;31.50
68476;DHT22;55464;48.266;14.188;2023-03-01T14:45:18;17.50;32.80
68476;DHT22;55464;48.266;14.188;2023-03-01T14:47:43;17.10;33.20
68476;DHT22;55464;48.266;14.188;2023-03-01T14:52:45;14.80;37.80
68476;DHT22;55464;48.266;14.188;2023-03-01T14:55:19;14.30;39.00
68476;DHT22;55464;48.266;14.188;2023-03-01T14:57:47;14.60;38.30
68476;DHT22;55464;48.266;14.188;2023-03-01T15:00:23;14.30;38.90
68476;DHT22;55464;48.266;14.188;2023-03-01T15:02:49;14.10;39.40
68476;DHT22;55464;48.266;14.188;2023-03-01T15:05:15;14.00;39.90
68476;DHT22;55464;48.266;14.188;2023-03-01T15:07:44;13.60;40.10
68476;DHT22;55464;48.266;14.188;2023-03-01T15:10:19;13.20;41.40
68476;DHT22;55464;48.266;14.188;2023-03-01T15:12:45;12.90;42.00
68476;DHT22;55464;48.266;14.188;2023-03-01T15:15:31;12.50;43.80
68476;DHT22;55464;48.266;14.188;2023-03-01T15:17:58;12.20;44.10
68476;DHT22;55464;48.266;14.188;2023-03-01T15:20:25;11.90;44.80
68476;DHT22;55464;48.266;14.188;2023-03-01T15:22:53;11.70;45.30
68476;DHT22;55464;48.266;14.188;2023-03-01T15:25:19;11.40;46.00
68476;DHT22;55464;48.266;14.188;2023-03-01T15:27:46;11.40;46.00
68476;DHT22;55464;48.266;14.188;2023-03-01T15:30:19;11.30;46.10
68476;DHT22;55464;48.266;14.188;2023-03-01T15:32:45;10.90;47.20
68476;DHT22;55464;48.266;14.188;2023-03-01T15:37:55;11.00;47.30
68476;DHT22;55464;48.266;14.188;2023-03-01T15:40:30;11.00;46.70
68476;DHT22;55464;48.266;14.188;2023-03-01T15:43:02;10.90;47.50
68476;DHT22;55464;48.266;14.188;2023-03-01T15:45:29;10.90;47.60
68476;DHT22;55464;48.266;14.188;2023-03-01T15:47:57;10.80;47.90
68476;DHT22;55464;48.266;14.188;2023-03-01T15:52:48;10.60;48.50
68476;DHT22;55464;48.266;14.188;2023-03-01T15:55:16;10.40;48.90
68476;DHT22;55464;48.266;14.188;2023-03-01T15:57:42;10.10;49.80
68476;DHT22;55464;48.266;14.188;2023-03-01T16:00:11;10.00;50.10
68476;DHT22;55464;48.266;14.188;2023-03-01T16:02:41;9.70;50.70
68476;DHT22;55464;48.266;14.188;2023-03-01T16:05:17;9.60;50.90
68476;DHT22;55464;48.266;14.188;2023-03-01T16:07:43;9.60;51.30
68476;DHT22;55464;48.266;14.188;2023-03-01T16:10:09;9.50;51.90
68476;DHT22;55464;48.266;14.188;2023-03-01T16:12:35;9.30;52.40
68476;DHT22;55464;48.266;14.188;2023-03-01T16:15:00;9.20;52.30
68476;DHT22;55464;48.266;14.188;2023-03-01T16:17:26;9.10;52.80
68476;DHT22;55464;48.266;14.188;2023-03-01T16:19:51;9.00;52.50
68476;DHT22;55464;48.266;14.188;2023-03-01T16:22:17;8.90;52.80
68476;DHT22;55464;48.266;14.188;2023-03-01T16:24:42;8.80;52.90
68476;DHT22;55464;48.266;14.188;2023-03-01T16:27:08;8.80;53.10
68476;DHT22;55464;48.266;14.188;2023-03-01T16:29:33;8.70;53.30
68476;DHT22;55464;48.266;14.188;2023-03-01T16:32:00;8.60;53.70
68476;DHT22;55464;48.266;14.188;2023-03-01T16:34:26;8.50;53.80
68476;DHT22;55464;48.266;14.188;2023-03-01T16:36:52;8.50;54.20
68476;DHT22;55464;48.266;14.188;2023-03-01T16:39:17;8.40;54.40
68476;DHT22;55464;48.266;14.188;2023-03-01T16:41:43;8.30;54.90
68476;DHT22;55464;48.266;14.188;2023-03-01T16:44:08;8.20;55.50
68476;DHT22;55464;48.266;14.188;2023-03-01T16:46:34;8.10;55.90
68476;DHT22;55464;48.266;14.188;2023-03-01T16:49:00;8.10;55.60
68476;DHT22;55464;48.266;14.188;2023-03-01T16:51:25;8.10;56.30
68476;DHT22;55464;48.266;14.188;2023-03-01T16:53:51;8.00;56.50
68476;DHT22;55464;48.266;14.188;2023-03-01T16:56:17;7.90;56.80
68476;DHT22;55464;48.266;14.188;2023-03-01T16:58:42;7.80;56.80
68476;DHT22;55464;48.266;14.188;2023-03-01T17:01:18;7.80;56.80
68476;DHT22;55464;48.266;14.188;2023-03-01T17:03:45;7.80;57.00
68476;DHT22;55464;48.266;14.188;2023-03-01T17:06:12;7.70;57.00
68476;DHT22;55464;48.266;14.188;2023-03-01T17:08:38;7.70;57.00